Accueil
METAR-TAF:

METAR-TAF

Aéroports :

Base aérienne 116 Luxeuil-Saint Sauveur

Luxeuil-les-Bains, France

latitude: 47-47N, longitude: 006-21E, altitude: 278 m

Observation

Le bulletin a été fait il y a 38 minutes, à 17:30 UTC
Vent 3 kt de nord-ouest
Température 2°C
Humidité 93%
Pression 998 hPa
Visibilité 10 km ou plus
pas de nuages en-dessous de 1500 mètres et pas de cumulonimbus.

METAR: LFSX 051730Z AUTO 31003KT CAVOK 02/01 Q0998

Heure: 19:08 (18:08 UTC)

Prévision

Le bulletin a été fait il y a 4 heures et 8 minutes, à 14:00 UTC
Prévision valable du 05 à 15 UTC au 06 à 15 UTC
Vent 5 kt de sud-est
Visibilité 10 km ou plus
Quelques nuages à une hauteur de 1400 ft
Ciel couvert à une hauteur de 18000 ft
Temporairement
du 05 à 21 UTC au 06 à 10 UTC
Visibilité: 3000 m
brume

TAF: LFSX 051400Z 0515/0615 14005KT 9999 FEW014 OVC180 TEMPO 0521/0610 3000 BR

Observations et prévisions météorologiques de plus de 4000 aéroports (messages METAR et TAF).

Les stations disponibles sont représentées par des disques jaunes et rouges sur la carte.

Passer la souris dessus pour voir le nom de la station.

Cliquer dessus pour voir les observations et prévisions météorologiques.

Pour changer de carte: cliquez sur les boutons verts avec une croix noire pour zoomer, sur le bouton vert avec un tiret pour effectuer un zoom arrière, ou sur les flèches vertes pour les cartes adjacentes.


METAR-TAF: